sensor_id;sensor_type;location;lat;lon;timestamp;temperature;humidity
22526;DHT22;11429;50.842;4.386;2023-09-08T00:00:56;22.70;99.90
22526;DHT22;11429;50.842;4.386;2023-09-08T00:03:22;22.60;99.90
22526;DHT22;11429;50.842;4.386;2023-09-08T00:05:47;22.70;99.90
22526;DHT22;11429;50.842;4.386;2023-09-08T00:08:13;22.50;99.90
22526;DHT22;11429;50.842;4.386;2023-09-08T00:10:39;22.40;99.90
22526;DHT22;11429;50.842;4.386;2023-09-08T00:13:05;22.20;99.90
22526;DHT22;11429;50.842;4.386;2023-09-08T00:15:32;22.10;99.90
22526;DHT22;11429;50.842;4.386;2023-09-08T00:17:58;22.10;99.90
22526;DHT22;11429;50.842;4.386;2023-09-08T00:20:24;22.00;99.90
22526;DHT22;11429;50.842;4.386;2023-09-08T00:22:50;22.10;99.90
22526;DHT22;11429;50.842;4.386;2023-09-08T00:25:16;21.90;99.90
22526;DHT22;11429;50.842;4.386;2023-09-08T00:27:41;21.90;99.90
22526;DHT22;11429;50.842;4.386;2023-09-08T00:30:07;21.80;99.90
22526;DHT22;11429;50.842;4.386;2023-09-08T00:32:33;21.90;99.90
22526;DHT22;11429;50.842;4.386;2023-09-08T00:34:59;22.00;99.90
22526;DHT22;11429;50.842;4.386;2023-09-08T00:37:24;22.10;99.90
22526;DHT22;11429;50.842;4.386;2023-09-08T00:39:50;22.30;99.90
22526;DHT22;11429;50.842;4.386;2023-09-08T00:42:16;22.10;99.90
22526;DHT22;11429;50.842;4.386;2023-09-08T00:44:42;22.00;99.90
22526;DHT22;11429;50.842;4.386;2023-09-08T00:47:07;22.00;99.90
22526;DHT22;11429;50.842;4.386;2023-09-08T00:49:33;22.10;99.90
22526;DHT22;11429;50.842;4.386;2023-09-08T00:51:59;22.00;99.90
22526;DHT22;11429;50.842;4.386;2023-09-08T00:54:25;22.00;99.90
22526;DHT22;11429;50.842;4.386;2023-09-08T00:56:56;22.20;99.90
22526;DHT22;11429;50.842;4.386;2023-09-08T00:59:23;22.20;99.90
22526;DHT22;11429;50.842;4.386;2023-09-08T01:01:50;22.30;99.90
22526;DHT22;11429;50.842;4.386;2023-09-08T01:04:16;22.20;99.90
22526;DHT22;11429;50.842;4.386;2023-09-08T01:06:41;22.30;99.90
22526;DHT22;11429;50.842;4.386;2023-09-08T01:09:07;22.40;99.90
22526;DHT22;11429;50.842;4.386;2023-09-08T01:11:33;22.40;99.90
22526;DHT22;11429;50.842;4.386;2023-09-08T01:13:59;22.40;99.90
22526;DHT22;11429;50.842;4.386;2023-09-08T01:16:25;22.40;99.90
22526;DHT22;11429;50.842;4.386;2023-09-08T01:18:51;22.30;99.90
22526;DHT22;11429;50.842;4.386;2023-09-08T01:26:48;22.30;99.90
22526;DHT22;11429;50.842;4.386;2023-09-08T01:29:15;22.10;99.90
22526;DHT22;11429;50.842;4.386;2023-09-08T01:31:41;22.10;99.90
22526;DHT22;11429;50.842;4.386;2023-09-08T01:34:08;22.20;99.90
22526;DHT22;11429;50.842;4.386;2023-09-08T01:36:34;22.10;99.90
22526;DHT22;11429;50.842;4.386;2023-09-08T01:39:01;22.20;99.90
22526;DHT22;11429;50.842;4.386;2023-09-08T01:41:27;22.10;99.90
22526;DHT22;11429;50.842;4.386;2023-09-08T01:43:53;22.00;99.90
22526;DHT22;11429;50.842;4.386;2023-09-08T01:46:20;21.90;99.90
22526;DHT22;11429;50.842;4.386;2023-09-08T01:48:45;22.00;99.90
22526;DHT22;11429;50.842;4.386;2023-09-08T01:51:11;22.10;99.90
22526;DHT22;11429;50.842;4.386;2023-09-08T01:53:37;21.90;99.90
22526;DHT22;11429;50.842;4.386;2023-09-08T01:56:03;21.80;99.90
22526;DHT22;11429;50.842;4.386;2023-09-08T01:58:28;21.70;99.90
22526;DHT22;11429;50.842;4.386;2023-09-08T02:00:56;21.70;99.90
22526;DHT22;11429;50.842;4.386;2023-09-08T02:03:26;21.70;99.90
22526;DHT22;11429;50.842;4.386;2023-09-08T02:05:52;21.80;99.90
22526;DHT22;11429;50.842;4.386;2023-09-08T02:08:19;21.70;99.90
22526;DHT22;11429;50.842;4.386;2023-09-08T02:10:44;21.70;99.90
22526;DHT22;11429;50.842;4.386;2023-09-08T02:13:10;21.70;99.90
22526;DHT22;11429;50.842;4.386;2023-09-08T02:15:36;21.80;99.90
22526;DHT22;11429;50.842;4.386;2023-09-08T02:18:02;21.90;99.90
22526;DHT22;11429;50.842;4.386;2023-09-08T02:20:27;21.80;99.90
22526;DHT22;11429;50.842;4.386;2023-09-08T02:22:54;21.80;99.90
22526;DHT22;11429;50.842;4.386;2023-09-08T02:25:22;21.70;99.90
22526;DHT22;11429;50.842;4.386;2023-09-08T02:27:48;21.70;99.90
22526;DHT22;11429;50.842;4.386;2023-09-08T02:30:14;21.70;99.90
22526;DHT22;11429;50.842;4.386;2023-09-08T02:32:40;21.70;99.90
22526;DHT22;11429;50.842;4.386;2023-09-08T02:35:08;21.70;99.90
22526;DHT22;11429;50.842;4.386;2023-09-08T02:37:34;21.70;99.90
22526;DHT22;11429;50.842;4.386;2023-09-08T02:39:59;21.60;99.90
22526;DHT22;11429;50.842;4.386;2023-09-08T02:42:25;21.50;99.90
22526;DHT22;11429;50.842;4.386;2023-09-08T02:44:51;21.40;99.90
22526;DHT22;11429;50.842;4.386;2023-09-08T02:47:17;21.60;99.90
22526;DHT22;11429;50.842;4.386;2023-09-08T02:49:44;21.80;99.90
22526;DHT22;11429;50.842;4.386;2023-09-08T02:52:09;21.70;99.90
22526;DHT22;11429;50.842;4.386;2023-09-08T02:54:35;21.70;99.90
22526;DHT22;11429;50.842;4.386;2023-09-08T02:57:01;21.70;99.90
22526;DHT22;11429;50.842;4.386;2023-09-08T02:59:26;21.60;99.90
22526;DHT22;11429;50.842;4.386;2023-09-08T03:01:52;21.60;99.90
22526;DHT22;11429;50.842;4.386;2023-09-08T03:04:18;21.50;99.90
22526;DHT22;11429;50.842;4.386;2023-09-08T03:06:43;21.40;99.90
22526;DHT22;11429;50.842;4.386;2023-09-08T03:09:09;21.30;99.90
22526;DHT22;11429;50.842;4.386;2023-09-08T03:11:34;21.30;99.90
22526;DHT22;11429;50.842;4.386;2023-09-08T03:14:02;21.20;99.90
22526;DHT22;11429;50.842;4.386;2023-09-08T03:16:28;21.00;99.90
22526;DHT22;11429;50.842;4.386;2023-09-08T03:18:54;20.80;99.90
22526;DHT22;11429;50.842;4.386;2023-09-08T03:21:19;20.60;99.90
22526;DHT22;11429;50.842;4.386;2023-09-08T03:23:45;20.40;99.90
22526;DHT22;11429;50.842;4.386;2023-09-08T03:26:11;20.40;99.90
22526;DHT22;11429;50.842;4.386;2023-09-08T03:28:37;20.40;99.90
22526;DHT22;11429;50.842;4.386;2023-09-08T03:31:04;20.40;99.90
22526;DHT22;11429;50.842;4.386;2023-09-08T03:33:30;20.60;99.90
22526;DHT22;11429;50.842;4.386;2023-09-08T03:35:56;20.80;99.90
22526;DHT22;11429;50.842;4.386;2023-09-08T03:38:22;21.00;99.90
22526;DHT22;11429;50.842;4.386;2023-09-08T03:40:48;21.20;99.90
22526;DHT22;11429;50.842;4.386;2023-09-08T03:43:14;21.10;99.90
22526;DHT22;11429;50.842;4.386;2023-09-08T03:45:39;20.80;99.90
22526;DHT22;11429;50.842;4.386;2023-09-08T03:48:06;20.60;99.90
22526;DHT22;11429;50.842;4.386;2023-09-08T03:50:31;20.60;99.90
22526;DHT22;11429;50.842;4.386;2023-09-08T03:52:57;20.50;99.90
22526;DHT22;11429;50.842;4.386;2023-09-08T03:55:23;20.40;99.90
22526;DHT22;11429;50.842;4.386;2023-09-08T03:57:48;20.40;99.90
22526;DHT22;11429;50.842;4.386;2023-09-08T04:00:14;20.30;99.90
22526;DHT22;11429;50.842;4.386;2023-09-08T04:02:50;20.30;99.90
22526;DHT22;11429;50.842;4.386;2023-09-08T04:05:17;20.20;99.90
22526;DHT22;11429;50.842;4.386;2023-09-08T04:07:47;20.20;99.90
22526;DHT22;11429;50.842;4.386;2023-09-08T04:10:12;20.30;99.90
22526;DHT22;11429;50.842;4.386;2023-09-08T04:12:42;20.40;99.90
22526;DHT22;11429;50.842;4.386;2023-09-08T04:15:08;20.30;99.90
22526;DHT22;11429;50.842;4.386;2023-09-08T04:17:34;20.30;99.90
22526;DHT22;11429;50.842;4.386;2023-09-08T04:20:04;20.40;99.90
22526;DHT22;11429;50.842;4.386;2023-09-08T04:22:31;20.60;99.90
22526;DHT22;11429;50.842;4.386;2023-09-08T04:24:57;20.80;99.90
22526;DHT22;11429;50.842;4.386;2023-09-08T04:27:23;20.50;99.90
22526;DHT22;11429;50.842;4.386;2023-09-08T04:29:49;20.40;99.90
22526;DHT22;11429;50.842;4.386;2023-09-08T04:32:14;20.30;99.90
22526;DHT22;11429;50.842;4.386;2023-09-08T04:34:41;20.20;99.90
22526;DHT22;11429;50.842;4.386;2023-09-08T04:37:10;20.30;99.90
22526;DHT22;11429;50.842;4.386;2023-09-08T04:39:36;20.30;99.90
22526;DHT22;11429;50.842;4.386;2023-09-08T04:42:05;20.30;99.90
22526;DHT22;11429;50.842;4.386;2023-09-08T04:44:31;20.30;99.90
22526;DHT22;11429;50.842;4.386;2023-09-08T04:46:56;20.30;99.90
22526;DHT22;11429;50.842;4.386;2023-09-08T04:49:22;20.40;99.90
22526;DHT22;11429;50.842;4.386;2023-09-08T04:51:48;20.30;99.90
22526;DHT22;11429;50.842;4.386;2023-09-08T04:54:13;20.20;99.90
22526;DHT22;11429;50.842;4.386;2023-09-08T04:56:39;20.20;99.90
22526;DHT22;11429;50.842;4.386;2023-09-08T04:59:06;20.30;99.90
22526;DHT22;11429;50.842;4.386;2023-09-08T05:01:32;20.20;99.90
22526;DHT22;11429;50.842;4.386;2023-09-08T05:03:59;20.30;99.90
22526;DHT22;11429;50.842;4.386;2023-09-08T05:06:25;20.30;99.90
22526;DHT22;11429;50.842;4.386;2023-09-08T05:08:51;20.30;99.90
22526;DHT22;11429;50.842;4.386;2023-09-08T05:11:17;20.40;99.90
22526;DHT22;11429;50.842;4.386;2023-09-08T05:13:45;20.40;99.90
22526;DHT22;11429;50.842;4.386;2023-09-08T05:16:11;20.50;99.90
22526;DHT22;11429;50.842;4.386;2023-09-08T05:18:40;20.60;99.90
22526;DHT22;11429;50.842;4.386;2023-09-08T05:21:07;20.60;99.90
22526;DHT22;11429;50.842;4.386;2023-09-08T05:23:33;20.70;99.90
22526;DHT22;11429;50.842;4.386;2023-09-08T05:26:00;20.70;99.90
22526;DHT22;11429;50.842;4.386;2023-09-08T05:28:26;20.90;99.90
22526;DHT22;11429;50.842;4.386;2023-09-08T05:30:55;21.00;99.90
22526;DHT22;11429;50.842;4.386;2023-09-08T05:33:20;21.10;99.90
22526;DHT22;11429;50.842;4.386;2023-09-08T05:35:46;21.10;99.90
22526;DHT22;11429;50.842;4.386;2023-09-08T05:38:12;21.20;99.90
22526;DHT22;11429;50.842;4.386;2023-09-08T05:40:38;21.20;99.90
22526;DHT22;11429;50.842;4.386;2023-09-08T05:43:04;21.30;99.90
22526;DHT22;11429;50.842;4.386;2023-09-08T05:45:31;21.30;99.90
22526;DHT22;11429;50.842;4.386;2023-09-08T05:47:57;21.30;99.90
22526;DHT22;11429;50.842;4.386;2023-09-08T05:50:23;21.30;99.90
22526;DHT22;11429;50.842;4.386;2023-09-08T05:52:49;21.30;99.90
22526;DHT22;11429;50.842;4.386;2023-09-08T05:55:14;21.40;99.90
22526;DHT22;11429;50.842;4.386;2023-09-08T05:57:40;21.70;99.90
22526;DHT22;11429;50.842;4.386;2023-09-08T06:00:07;22.70;99.90
22526;DHT22;11429;50.842;4.386;2023-09-08T06:02:32;24.30;99.90
22526;DHT22;11429;50.842;4.386;2023-09-08T06:04:58;25.60;99.90
22526;DHT22;11429;50.842;4.386;2023-09-08T06:07:24;26.60;99.90
22526;DHT22;11429;50.842;4.386;2023-09-08T06:09:49;27.60;99.90
22526;DHT22;11429;50.842;4.386;2023-09-08T06:12:15;28.30;99.90
22526;DHT22;11429;50.842;4.386;2023-09-08T06:14:41;28.90;99.90
22526;DHT22;11429;50.842;4.386;2023-09-08T06:17:06;29.20;99.90
22526;DHT22;11429;50.842;4.386;2023-09-08T06:19:33;29.10;99.90
22526;DHT22;11429;50.842;4.386;2023-09-08T06:21:58;28.70;99.90
22526;DHT22;11429;50.842;4.386;2023-09-08T06:24:24;27.90;99.90
22526;DHT22;11429;50.842;4.386;2023-09-08T06:26:50;27.30;99.90
22526;DHT22;11429;50.842;4.386;2023-09-08T06:29:16;26.60;99.90
22526;DHT22;11429;50.842;4.386;2023-09-08T06:31:41;26.20;99.90
22526;DHT22;11429;50.842;4.386;2023-09-08T06:34:07;26.20;99.90
22526;DHT22;11429;50.842;4.386;2023-09-08T06:36:33;26.70;99.90
22526;DHT22;11429;50.842;4.386;2023-09-08T06:38:59;27.10;99.90
22526;DHT22;11429;50.842;4.386;2023-09-08T06:41:25;27.30;99.90
22526;DHT22;11429;50.842;4.386;2023-09-08T06:43:52;27.20;99.90
22526;DHT22;11429;50.842;4.386;2023-09-08T06:46:18;26.90;99.90
22526;DHT22;11429;50.842;4.386;2023-09-08T06:48:44;26.20;99.90
22526;DHT22;11429;50.842;4.386;2023-09-08T06:51:10;26.10;99.90
22526;DHT22;11429;50.842;4.386;2023-09-08T06:53:36;25.80;99.90
22526;DHT22;11429;50.842;4.386;2023-09-08T06:56:02;25.40;99.90
22526;DHT22;11429;50.842;4.386;2023-09-08T06:58:28;25.20;99.90
22526;DHT22;11429;50.842;4.386;2023-09-08T07:00:54;25.10;99.90
22526;DHT22;11429;50.842;4.386;2023-09-08T07:03:23;24.90;99.90
22526;DHT22;11429;50.842;4.386;2023-09-08T07:05:50;25.00;99.90
22526;DHT22;11429;50.842;4.386;2023-09-08T07:08:16;25.00;99.90
22526;DHT22;11429;50.842;4.386;2023-09-08T07:10:43;25.00;99.90
22526;DHT22;11429;50.842;4.386;2023-09-08T07:13:09;25.00;99.90
22526;DHT22;11429;50.842;4.386;2023-09-08T07:15:35;25.20;99.90
22526;DHT22;11429;50.842;4.386;2023-09-08T07:18:00;25.00;99.90
22526;DHT22;11429;50.842;4.386;2023-09-08T07:20:26;24.90;99.90
22526;DHT22;11429;50.842;4.386;2023-09-08T07:22:52;24.90;99.90
22526;DHT22;11429;50.842;4.386;2023-09-08T07:25:17;25.10;99.90
22526;DHT22;11429;50.842;4.386;2023-09-08T07:27:43;25.30;99.90
22526;DHT22;11429;50.842;4.386;2023-09-08T07:30:09;25.40;99.90
22526;DHT22;11429;50.842;4.386;2023-09-08T07:32:35;25.30;99.90
22526;DHT22;11429;50.842;4.386;2023-09-08T07:35:01;25.30;99.90
22526;DHT22;11429;50.842;4.386;2023-09-08T07:37:27;25.30;99.90
22526;DHT22;11429;50.842;4.386;2023-09-08T07:39:52;25.30;99.90
22526;DHT22;11429;50.842;4.386;2023-09-08T07:42:19;25.40;99.90
22526;DHT22;11429;50.842;4.386;2023-09-08T07:44:45;25.50;99.90
22526;DHT22;11429;50.842;4.386;2023-09-08T07:47:11;25.60;99.90
22526;DHT22;11429;50.842;4.386;2023-09-08T07:49:37;25.70;99.90
22526;DHT22;11429;50.842;4.386;2023-09-08T07:52:02;26.10;99.90
22526;DHT22;11429;50.842;4.386;2023-09-08T07:54:30;26.40;99.90
22526;DHT22;11429;50.842;4.386;2023-09-08T07:56:55;26.60;99.90
22526;DHT22;11429;50.842;4.386;2023-09-08T07:59:21;26.60;99.90
22526;DHT22;11429;50.842;4.386;2023-09-08T08:01:47;26.50;99.90
22526;DHT22;11429;50.842;4.386;2023-09-08T08:04:12;26.50;99.90
22526;DHT22;11429;50.842;4.386;2023-09-08T08:06:38;26.40;99.90
22526;DHT22;11429;50.842;4.386;2023-09-08T08:09:04;26.30;99.90
22526;DHT22;11429;50.842;4.386;2023-09-08T08:11:30;26.30;99.90
22526;DHT22;11429;50.842;4.386;2023-09-08T08:13:55;26.30;99.90
22526;DHT22;11429;50.842;4.386;2023-09-08T08:16:22;26.30;99.90
22526;DHT22;11429;50.842;4.386;2023-09-08T08:18:48;26.30;99.90
22526;DHT22;11429;50.842;4.386;2023-09-08T08:21:14;26.40;99.90
22526;DHT22;11429;50.842;4.386;2023-09-08T08:23:40;26.30;99.90
22526;DHT22;11429;50.842;4.386;2023-09-08T08:26:05;26.20;99.90
22526;DHT22;11429;50.842;4.386;2023-09-08T08:28:32;26.30;99.90
22526;DHT22;11429;50.842;4.386;2023-09-08T08:30:58;26.40;99.90
22526;DHT22;11429;50.842;4.386;2023-09-08T08:33:24;26.40;99.90
22526;DHT22;11429;50.842;4.386;2023-09-08T08:35:52;26.50;99.90
22526;DHT22;11429;50.842;4.386;2023-09-08T08:38:18;26.60;99.90
22526;DHT22;11429;50.842;4.386;2023-09-08T08:40:44;26.60;99.90
22526;DHT22;11429;50.842;4.386;2023-09-08T08:43:10;26.70;99.90
22526;DHT22;11429;50.842;4.386;2023-09-08T08:45:37;26.70;99.90
22526;DHT22;11429;50.842;4.386;2023-09-08T08:48:05;26.70;99.90
22526;DHT22;11429;50.842;4.386;2023-09-08T08:50:35;27.10;99.90
22526;DHT22;11429;50.842;4.386;2023-09-08T08:53:01;27.50;99.90
22526;DHT22;11429;50.842;4.386;2023-09-08T08:55:29;28.00;99.90
22526;DHT22;11429;50.842;4.386;2023-09-08T08:58:03;28.30;99.90
22526;DHT22;11429;50.842;4.386;2023-09-08T09:00:29;28.10;99.90
22526;DHT22;11429;50.842;4.386;2023-09-08T09:02:56;27.90;99.90
22526;DHT22;11429;50.842;4.386;2023-09-08T09:05:24;28.70;99.90
22526;DHT22;11429;50.842;4.386;2023-09-08T09:07:50;31.30;99.90
22526;DHT22;11429;50.842;4.386;2023-09-08T09:10:17;32.70;99.90
22526;DHT22;11429;50.842;4.386;2023-09-08T09:12:43;32.20;99.90
22526;DHT22;11429;50.842;4.386;2023-09-08T09:15:09;32.50;99.90
22526;DHT22;11429;50.842;4.386;2023-09-08T09:17:36;33.80;99.90
22526;DHT22;11429;50.842;4.386;2023-09-08T09:20:20;33.30;99.90
22526;DHT22;11429;50.842;4.386;2023-09-08T09:22:48;34.40;99.90
22526;DHT22;11429;50.842;4.386;2023-09-08T09:25:28;35.80;99.90
22526;DHT22;11429;50.842;4.386;2023-09-08T09:27:56;36.10;99.90
22526;DHT22;11429;50.842;4.386;2023-09-08T09:30:23;37.00;99.90
22526;DHT22;11429;50.842;4.386;2023-09-08T09:32:59;38.10;99.90
22526;DHT22;11429;50.842;4.386;2023-09-08T09:35:40;39.40;99.90
22526;DHT22;11429;50.842;4.386;2023-09-08T09:38:06;40.00;99.90
22526;DHT22;11429;50.842;4.386;2023-09-08T09:40:34;40.80;99.90
22526;DHT22;11429;50.842;4.386;2023-09-08T09:42:59;41.30;99.90
22526;DHT22;11429;50.842;4.386;2023-09-08T09:45:26;41.90;99.90
22526;DHT22;11429;50.842;4.386;2023-09-08T09:47:52;39.10;99.90
22526;DHT22;11429;50.842;4.386;2023-09-08T09:50:34;39.00;99.90
22526;DHT22;11429;50.842;4.386;2023-09-08T09:53:01;39.10;99.90
22526;DHT22;11429;50.842;4.386;2023-09-08T09:55:28;38.40;99.90
22526;DHT22;11429;50.842;4.386;2023-09-08T09:57:58;38.50;99.90
22526;DHT22;11429;50.842;4.386;2023-09-08T10:00:26;39.90;99.90
22526;DHT22;11429;50.842;4.386;2023-09-08T10:02:54;40.30;99.90
22526;DHT22;11429;50.842;4.386;2023-09-08T10:05:20;40.50;99.90
22526;DHT22;11429;50.842;4.386;2023-09-08T10:07:47;41.00;98.60
22526;DHT22;11429;50.842;4.386;2023-09-08T10:10:14;41.70;98.10
22526;DHT22;11429;50.842;4.386;2023-09-08T10:12:44;39.10;99.00
22526;DHT22;11429;50.842;4.386;2023-09-08T10:15:13;39.60;99.70
22526;DHT22;11429;50.842;4.386;2023-09-08T10:17:44;40.10;98.60
22526;DHT22;11429;50.842;4.386;2023-09-08T10:20:12;41.00;98.30
22526;DHT22;11429;50.842;4.386;2023-09-08T10:22:45;39.20;98.40
22526;DHT22;11429;50.842;4.386;2023-09-08T10:25:12;39.30;98.40
22526;DHT22;11429;50.842;4.386;2023-09-08T10:27:40;38.20;99.20
22526;DHT22;11429;50.842;4.386;2023-09-08T10:30:07;36.40;99.90
22526;DHT22;11429;50.842;4.386;2023-09-08T10:32:35;36.30;99.90
22526;DHT22;11429;50.842;4.386;2023-09-08T10:35:05;38.70;98.10
22526;DHT22;11429;50.842;4.386;2023-09-08T10:37:31;37.50;99.10
22526;DHT22;11429;50.842;4.386;2023-09-08T10:40:24;38.20;99.20
22526;DHT22;11429;50.842;4.386;2023-09-08T10:43:09;39.30;99.00
22526;DHT22;11429;50.842;4.386;2023-09-08T10:45:35;38.80;98.00
22526;DHT22;11429;50.842;4.386;2023-09-08T10:48:01;38.10;98.10
22526;DHT22;11429;50.842;4.386;2023-09-08T10:50:34;38.80;97.10
22526;DHT22;11429;50.842;4.386;2023-09-08T10:53:16;39.50;96.40
22526;DHT22;11429;50.842;4.386;2023-09-08T10:55:44;40.70;95.60
22526;DHT22;11429;50.842;4.386;2023-09-08T10:58:20;40.70;96.60
22526;DHT22;11429;50.842;4.386;2023-09-08T11:00:48;41.10;95.40
22526;DHT22;11429;50.842;4.386;2023-09-08T11:03:26;40.60;95.30
22526;DHT22;11429;50.842;4.386;2023-09-08T11:05:53;40.40;94.70
22526;DHT22;11429;50.842;4.386;2023-09-08T11:08:19;40.90;94.70
22526;DHT22;11429;50.842;4.386;2023-09-08T11:10:45;39.90;94.40
22526;DHT22;11429;50.842;4.386;2023-09-08T11:13:10;38.00;96.10
22526;DHT22;11429;50.842;4.386;2023-09-08T12:51:24;34.10;99.90
22526;DHT22;11429;50.842;4.386;2023-09-08T12:53:50;33.80;99.90
22526;DHT22;11429;50.842;4.386;2023-09-08T12:56:15;33.70;99.90
22526;DHT22;11429;50.842;4.386;2023-09-08T12:58:41;33.70;99.90
22526;DHT22;11429;50.842;4.386;2023-09-08T13:01:07;33.50;99.90
22526;DHT22;11429;50.842;4.386;2023-09-08T13:03:33;33.20;99.90
22526;DHT22;11429;50.842;4.386;2023-09-08T13:05:58;33.00;99.90
22526;DHT22;11429;50.842;4.386;2023-09-08T13:08:24;33.40;99.90
22526;DHT22;11429;50.842;4.386;2023-09-08T13:10:50;33.00;99.90
22526;DHT22;11429;50.842;4.386;2023-09-08T13:13:16;32.90;99.90
22526;DHT22;11429;50.842;4.386;2023-09-08T13:15:42;33.10;99.90
22526;DHT22;11429;50.842;4.386;2023-09-08T13:18:08;33.50;99.90
22526;DHT22;11429;50.842;4.386;2023-09-08T13:20:34;33.20;99.90
22526;DHT22;11429;50.842;4.386;2023-09-08T13:22:59;32.90;99.90
22526;DHT22;11429;50.842;4.386;2023-09-08T13:25:25;32.60;99.90
22526;DHT22;11429;50.842;4.386;2023-09-08T13:27:51;32.20;99.90
22526;DHT22;11429;50.842;4.386;2023-09-08T13:30:16;32.30;99.90
22526;DHT22;11429;50.842;4.386;2023-09-08T13:32:43;32.40;99.90
22526;DHT22;11429;50.842;4.386;2023-09-08T13:35:09;32.50;99.90
22526;DHT22;11429;50.842;4.386;2023-09-08T13:37:35;32.70;99.90
22526;DHT22;11429;50.842;4.386;2023-09-08T13:40:03;32.50;99.90
22526;DHT22;11429;50.842;4.386;2023-09-08T13:42:29;32.50;99.90
22526;DHT22;11429;50.842;4.386;2023-09-08T13:44:55;32.40;99.90
22526;DHT22;11429;50.842;4.386;2023-09-08T13:47:21;32.40;99.90
22526;DHT22;11429;50.842;4.386;2023-09-08T13:49:47;32.40;99.90
22526;DHT22;11429;50.842;4.386;2023-09-08T13:52:12;32.30;99.90
22526;DHT22;11429;50.842;4.386;2023-09-08T13:54:38;32.30;99.90
22526;DHT22;11429;50.842;4.386;2023-09-08T13:57:05;32.10;99.90
22526;DHT22;11429;50.842;4.386;2023-09-08T13:59:31;32.00;99.90
22526;DHT22;11429;50.842;4.386;2023-09-08T14:01:57;32.20;99.90
22526;DHT22;11429;50.842;4.386;2023-09-08T14:04:25;32.50;99.90
22526;DHT22;11429;50.842;4.386;2023-09-08T14:06:50;32.50;99.90
22526;DHT22;11429;50.842;4.386;2023-09-08T14:09:16;32.40;99.90
22526;DHT22;11429;50.842;4.386;2023-09-08T14:11:42;32.30;99.90
22526;DHT22;11429;50.842;4.386;2023-09-08T14:14:08;32.20;99.90
22526;DHT22;11429;50.842;4.386;2023-09-08T14:16:33;32.30;99.90
22526;DHT22;11429;50.842;4.386;2023-09-08T14:19:00;32.10;99.90
22526;DHT22;11429;50.842;4.386;2023-09-08T14:21:26;32.10;99.90
22526;DHT22;11429;50.842;4.386;2023-09-08T14:23:52;32.10;99.90
22526;DHT22;11429;50.842;4.386;2023-09-08T14:26:17;32.00;99.90
22526;DHT22;11429;50.842;4.386;2023-09-08T14:28:45;32.00;99.90
22526;DHT22;11429;50.842;4.386;2023-09-08T14:31:11;32.00;99.90
22526;DHT22;11429;50.842;4.386;2023-09-08T14:33:37;31.90;99.90
22526;DHT22;11429;50.842;4.386;2023-09-08T14:36:03;31.90;99.90
22526;DHT22;11429;50.842;4.386;2023-09-08T14:38:29;32.00;99.90
22526;DHT22;11429;50.842;4.386;2023-09-08T14:41:02;31.80;99.90
22526;DHT22;11429;50.842;4.386;2023-09-08T14:43:29;31.70;99.90
22526;DHT22;11429;50.842;4.386;2023-09-08T14:45:55;31.60;99.90
22526;DHT22;11429;50.842;4.386;2023-09-08T14:48:24;31.70;99.90
22526;DHT22;11429;50.842;4.386;2023-09-08T14:50:50;31.80;99.90
22526;DHT22;11429;50.842;4.386;2023-09-08T14:53:16;31.60;99.90
22526;DHT22;11429;50.842;4.386;2023-09-08T14:55:42;31.60;99.90
22526;DHT22;11429;50.842;4.386;2023-09-08T14:58:10;31.60;99.90
22526;DHT22;11429;50.842;4.386;2023-09-08T15:00:38;31.50;99.90
22526;DHT22;11429;50.842;4.386;2023-09-08T15:03:04;31.50;99.90
22526;DHT22;11429;50.842;4.386;2023-09-08T15:05:31;31.50;99.90
22526;DHT22;11429;50.842;4.386;2023-09-08T15:07:58;31.50;99.90
22526;DHT22;11429;50.842;4.386;2023-09-08T15:10:24;31.40;99.90
22526;DHT22;11429;50.842;4.386;2023-09-08T15:12:49;31.30;99.90
22526;DHT22;11429;50.842;4.386;2023-09-08T15:15:15;31.40;99.90
22526;DHT22;11429;50.842;4.386;2023-09-08T15:17:41;31.30;99.90
22526;DHT22;11429;50.842;4.386;2023-09-08T15:20:07;31.30;99.90
22526;DHT22;11429;50.842;4.386;2023-09-08T15:22:35;31.30;99.90
22526;DHT22;11429;50.842;4.386;2023-09-08T15:25:00;31.10;99.90
22526;DHT22;11429;50.842;4.386;2023-09-08T15:27:26;31.00;99.90
22526;DHT22;11429;50.842;4.386;2023-09-08T15:29:55;31.00;99.90
22526;DHT22;11429;50.842;4.386;2023-09-08T15:32:20;31.20;99.90
22526;DHT22;11429;50.842;4.386;2023-09-08T15:34:48;31.20;99.90
22526;DHT22;11429;50.842;4.386;2023-09-08T15:37:15;31.20;99.90
22526;DHT22;11429;50.842;4.386;2023-09-08T15:39:41;31.10;99.90
22526;DHT22;11429;50.842;4.386;2023-09-08T15:42:06;30.90;99.90
22526;DHT22;11429;50.842;4.386;2023-09-08T15:44:33;31.00;99.90
22526;DHT22;11429;50.842;4.386;2023-09-08T15:46:58;31.00;99.90
22526;DHT22;11429;50.842;4.386;2023-09-08T15:49:25;31.00;99.90
22526;DHT22;11429;50.842;4.386;2023-09-08T15:51:51;30.90;99.90
22526;DHT22;11429;50.842;4.386;2023-09-08T15:54:17;31.00;99.90
22526;DHT22;11429;50.842;4.386;2023-09-08T15:56:43;30.90;99.90
22526;DHT22;11429;50.842;4.386;2023-09-08T15:59:09;30.90;99.90
22526;DHT22;11429;50.842;4.386;2023-09-08T16:01:35;30.80;99.90
22526;DHT22;11429;50.842;4.386;2023-09-08T16:04:01;30.70;99.90
22526;DHT22;11429;50.842;4.386;2023-09-08T16:06:26;30.80;99.90
22526;DHT22;11429;50.842;4.386;2023-09-08T16:08:52;30.70;99.90
22526;DHT22;11429;50.842;4.386;2023-09-08T16:11:18;30.70;99.90
22526;DHT22;11429;50.842;4.386;2023-09-08T16:13:43;30.60;99.90
22526;DHT22;11429;50.842;4.386;2023-09-08T16:16:09;30.70;99.90
22526;DHT22;11429;50.842;4.386;2023-09-08T16:18:35;30.70;99.90
22526;DHT22;11429;50.842;4.386;2023-09-08T16:21:00;30.70;99.90
22526;DHT22;11429;50.842;4.386;2023-09-08T16:23:26;30.70;99.90
22526;DHT22;11429;50.842;4.386;2023-09-08T16:25:52;30.50;99.90
22526;DHT22;11429;50.842;4.386;2023-09-08T16:28:17;30.50;99.90
22526;DHT22;11429;50.842;4.386;2023-09-08T16:30:43;30.50;99.90
22526;DHT22;11429;50.842;4.386;2023-09-08T16:33:09;30.70;99.90
22526;DHT22;11429;50.842;4.386;2023-09-08T16:35:35;30.80;99.90
22526;DHT22;11429;50.842;4.386;2023-09-08T16:38:01;30.70;99.90
22526;DHT22;11429;50.842;4.386;2023-09-08T16:40:27;30.60;99.90
22526;DHT22;11429;50.842;4.386;2023-09-08T16:42:53;30.50;99.90
22526;DHT22;11429;50.842;4.386;2023-09-08T16:45:20;30.40;99.90
22526;DHT22;11429;50.842;4.386;2023-09-08T16:47:46;30.30;99.90
22526;DHT22;11429;50.842;4.386;2023-09-08T16:50:11;30.30;99.90
22526;DHT22;11429;50.842;4.386;2023-09-08T16:52:37;30.30;99.90
22526;DHT22;11429;50.842;4.386;2023-09-08T16:55:03;30.20;99.90
22526;DHT22;11429;50.842;4.386;2023-09-08T16:57:36;30.10;99.90
22526;DHT22;11429;50.842;4.386;2023-09-08T17:00:02;30.10;99.90
22526;DHT22;11429;50.842;4.386;2023-09-08T17:02:29;30.10;99.90
22526;DHT22;11429;50.842;4.386;2023-09-08T17:04:54;30.10;99.90
22526;DHT22;11429;50.842;4.386;2023-09-08T17:07:20;29.90;99.90